sensor_id;sensor_type;location;lat;lon;timestamp;pressure;altitude;pressure_sealevel;temperature;humidity
79544;BME280;68994;47.176;7.534;2023-07-20T00:01:31;95993.25;;;17.52;68.83
79544;BME280;68994;47.176;7.534;2023-07-20T00:03:58;95983.88;;;17.50;68.13
79544;BME280;68994;47.176;7.534;2023-07-20T00:06:25;95986.38;;;17.46;68.80
79544;BME280;68994;47.176;7.534;2023-07-20T00:08:53;95988.88;;;17.42;67.99
79544;BME280;68994;47.176;7.534;2023-07-20T00:11:21;95983.38;;;17.34;68.26
79544;BME280;68994;47.176;7.534;2023-07-20T00:13:47;95984.47;;;17.33;68.31
79544;BME280;68994;47.176;7.534;2023-07-20T00:16:14;95984.59;;;17.28;68.95
79544;BME280;68994;47.176;7.534;2023-07-20T00:18:40;95980.31;;;17.27;69.22
79544;BME280;68994;47.176;7.534;2023-07-20T00:21:07;95985.81;;;17.21;68.92
79544;BME280;68994;47.176;7.534;2023-07-20T00:23:34;95989.59;;;17.20;69.74
79544;BME280;68994;47.176;7.534;2023-07-20T00:26:00;95984.00;;;17.17;68.93
79544;BME280;68994;47.176;7.534;2023-07-20T00:28:28;95984.41;;;17.10;69.64
79544;BME280;68994;47.176;7.534;2023-07-20T00:30:55;95989.28;;;17.08;68.62
79544;BME280;68994;47.176;7.534;2023-07-20T00:33:22;95993.09;;;17.07;69.18
79544;BME280;68994;47.176;7.534;2023-07-20T00:35:48;95990.97;;;17.04;69.35
79544;BME280;68994;47.176;7.534;2023-07-20T00:38:15;95987.19;;;17.05;69.58
79544;BME280;68994;47.176;7.534;2023-07-20T00:40:41;95993.09;;;17.07;69.34
79544;BME280;68994;47.176;7.534;2023-07-20T00:43:08;95988.88;;;17.01;69.60
79544;BME280;68994;47.176;7.534;2023-07-20T00:45:36;96003.06;;;17.06;70.48
79544;BME280;68994;47.176;7.534;2023-07-20T00:48:06;95996.78;;;17.11;70.35
79544;BME280;68994;47.176;7.534;2023-07-20T00:50:33;95997.28;;;17.13;70.39
79544;BME280;68994;47.176;7.534;2023-07-20T00:53:03;95989.28;;;17.22;70.38
79544;BME280;68994;47.176;7.534;2023-07-20T00:55:30;95983.50;;;17.29;70.31
79544;BME280;68994;47.176;7.534;2023-07-20T00:57:57;95983.78;;;17.27;68.53
79544;BME280;68994;47.176;7.534;2023-07-20T01:00:24;95986.78;;;17.25;69.35
79544;BME280;68994;47.176;7.534;2023-07-20T01:02:52;95986.69;;;17.31;68.50
79544;BME280;68994;47.176;7.534;2023-07-20T01:05:19;95982.50;;;17.24;69.65
79544;BME280;68994;47.176;7.534;2023-07-20T01:07:53;95978.31;;;17.18;71.06
79544;BME280;68994;47.176;7.534;2023-07-20T01:10:27;95988.41;;;17.13;71.03
79544;BME280;68994;47.176;7.534;2023-07-20T01:12:55;95983.31;;;17.11;70.92
79544;BME280;68994;47.176;7.534;2023-07-20T01:15:22;95975.31;;;17.06;71.28
79544;BME280;68994;47.176;7.534;2023-07-20T01:17:49;95976.31;;;17.10;70.07
79544;BME280;68994;47.176;7.534;2023-07-20T01:20:19;95972.00;;;17.09;70.37
79544;BME280;68994;47.176;7.534;2023-07-20T01:23:05;95983.50;;;17.15;70.41
79544;BME280;68994;47.176;7.534;2023-07-20T01:26:02;95981.69;;;17.10;70.81
79544;BME280;68994;47.176;7.534;2023-07-20T01:29:03;95977.09;;;17.11;69.46
79544;BME280;68994;47.176;7.534;2023-07-20T01:31:34;95972.31;;;17.08;71.26
79544;BME280;68994;47.176;7.534;2023-07-20T01:34:03;95976.91;;;17.07;71.50
79544;BME280;68994;47.176;7.534;2023-07-20T01:36:35;95979.50;;;17.12;71.73
79544;BME280;68994;47.176;7.534;2023-07-20T01:39:03;95975.72;;;17.13;70.96
79544;BME280;68994;47.176;7.534;2023-07-20T01:41:30;95974.09;;;17.12;70.65
79544;BME280;68994;47.176;7.534;2023-07-20T01:43:57;95977.53;;;17.18;71.99
79544;BME280;68994;47.176;7.534;2023-07-20T01:46:24;95976.31;;;17.24;71.87
79544;BME280;68994;47.176;7.534;2023-07-20T01:48:52;95963.53;;;17.30;72.26
79544;BME280;68994;47.176;7.534;2023-07-20T01:51:19;95970.41;;;17.36;70.77
79544;BME280;68994;47.176;7.534;2023-07-20T01:53:46;95968.00;;;17.48;69.17
79544;BME280;68994;47.176;7.534;2023-07-20T01:56:12;95964.06;;;17.54;69.72
79544;BME280;68994;47.176;7.534;2023-07-20T01:58:39;95942.34;;;17.37;69.46
79544;BME280;68994;47.176;7.534;2023-07-20T02:01:06;95964.88;;;17.55;71.91
79544;BME280;68994;47.176;7.534;2023-07-20T02:03:32;95968.38;;;17.55;72.11
79544;BME280;68994;47.176;7.534;2023-07-20T02:06:00;95964.97;;;17.64;71.05
79544;BME280;68994;47.176;7.534;2023-07-20T02:08:27;95969.28;;;17.65;70.87
79544;BME280;68994;47.176;7.534;2023-07-20T02:10:53;95971.84;;;17.70;70.09
79544;BME280;68994;47.176;7.534;2023-07-20T02:13:20;95969.84;;;17.75;72.09
79544;BME280;68994;47.176;7.534;2023-07-20T02:15:46;95971.22;;;17.73;71.71
79544;BME280;68994;47.176;7.534;2023-07-20T02:18:14;95975.03;;;17.72;73.32
79544;BME280;68994;47.176;7.534;2023-07-20T02:20:41;95976.03;;;17.76;70.79
79544;BME280;68994;47.176;7.534;2023-07-20T02:23:09;95976.63;;;17.73;71.41
79544;BME280;68994;47.176;7.534;2023-07-20T02:25:36;95978.22;;;17.74;68.68
79544;BME280;68994;47.176;7.534;2023-07-20T02:28:04;95970.03;;;17.79;67.90
79544;BME280;68994;47.176;7.534;2023-07-20T02:30:30;95969.91;;;17.84;68.71
79544;BME280;68994;47.176;7.534;2023-07-20T02:32:57;95977.69;;;17.86;69.92
79544;BME280;68994;47.176;7.534;2023-07-20T02:35:23;95979.22;;;17.78;69.07
79544;BME280;68994;47.176;7.534;2023-07-20T02:37:51;95971.44;;;17.76;71.10
79544;BME280;68994;47.176;7.534;2023-07-20T02:40:19;95972.03;;;17.73;71.23
79544;BME280;68994;47.176;7.534;2023-07-20T02:42:46;95987.41;;;17.73;72.59
79544;BME280;68994;47.176;7.534;2023-07-20T02:45:12;95979.31;;;17.73;72.31
79544;BME280;68994;47.176;7.534;2023-07-20T02:47:39;95984.22;;;17.71;71.47
79544;BME280;68994;47.176;7.534;2023-07-20T02:50:08;95983.84;;;17.64;71.77
79544;BME280;68994;47.176;7.534;2023-07-20T02:52:35;95983.84;;;17.64;72.49
79544;BME280;68994;47.176;7.534;2023-07-20T02:55:01;95978.47;;;17.64;70.37
79544;BME280;68994;47.176;7.534;2023-07-20T02:57:29;95975.47;;;17.65;72.06
79544;BME280;68994;47.176;7.534;2023-07-20T02:59:56;95978.03;;;17.70;70.85
79544;BME280;68994;47.176;7.534;2023-07-20T03:02:22;95978.84;;;17.71;71.02
79544;BME280;68994;47.176;7.534;2023-07-20T03:04:50;95979.63;;;17.71;71.86
79544;BME280;68994;47.176;7.534;2023-07-20T03:07:16;95975.16;;;17.67;69.93
79544;BME280;68994;47.176;7.534;2023-07-20T03:09:43;95976.94;;;17.71;69.50
79544;BME280;68994;47.176;7.534;2023-07-20T03:12:10;95980.56;;;17.67;69.42
79544;BME280;68994;47.176;7.534;2023-07-20T03:14:38;95972.66;;;17.70;69.37
79544;BME280;68994;47.176;7.534;2023-07-20T03:17:05;95982.25;;;17.62;70.40
79544;BME280;68994;47.176;7.534;2023-07-20T03:19:32;95976.34;;;17.60;70.44
79544;BME280;68994;47.176;7.534;2023-07-20T03:21:59;95972.16;;;17.54;71.88
79544;BME280;68994;47.176;7.534;2023-07-20T03:24:25;95977.06;;;17.52;69.48
79544;BME280;68994;47.176;7.534;2023-07-20T03:26:52;95978.38;;;17.55;69.49
79544;BME280;68994;47.176;7.534;2023-07-20T03:29:19;95979.66;;;17.57;68.80
79544;BME280;68994;47.176;7.534;2023-07-20T03:31:47;95980.13;;;17.73;67.86
79544;BME280;68994;47.176;7.534;2023-07-20T03:34:13;95976.72;;;17.68;69.28
79544;BME280;68994;47.176;7.534;2023-07-20T03:36:40;95978.47;;;17.64;69.48
79544;BME280;68994;47.176;7.534;2023-07-20T03:39:06;95989.25;;;17.64;69.80
79544;BME280;68994;47.176;7.534;2023-07-20T03:41:33;95982.25;;;17.62;69.61
79544;BME280;68994;47.176;7.534;2023-07-20T03:44:00;95990.94;;;17.59;70.09
79544;BME280;68994;47.176;7.534;2023-07-20T03:46:26;95998.53;;;17.57;68.99
79544;BME280;68994;47.176;7.534;2023-07-20T03:48:54;95992.34;;;17.57;69.60
79544;BME280;68994;47.176;7.534;2023-07-20T03:51:21;95993.25;;;17.52;69.46
79544;BME280;68994;47.176;7.534;2023-07-20T03:53:47;95993.84;;;17.49;71.70
79544;BME280;68994;47.176;7.534;2023-07-20T03:56:14;95998.75;;;17.47;70.83
79544;BME280;68994;47.176;7.534;2023-07-20T03:58:40;95994.56;;;17.41;71.44
79544;BME280;68994;47.176;7.534;2023-07-20T04:01:07;95983.09;;;17.35;72.67
79544;BME280;68994;47.176;7.534;2023-07-20T04:03:34;96000.66;;;17.33;72.11
79544;BME280;68994;47.176;7.534;2023-07-20T04:06:03;96002.66;;;17.41;71.42
79544;BME280;68994;47.176;7.534;2023-07-20T04:08:29;95990.66;;;17.47;70.64
79544;BME280;68994;47.176;7.534;2023-07-20T04:10:56;95998.47;;;17.49;71.29
79544;BME280;68994;47.176;7.534;2023-07-20T04:13:23;96001.34;;;17.52;71.19
79544;BME280;68994;47.176;7.534;2023-07-20T04:15:49;96001.47;;;17.47;72.75
79544;BME280;68994;47.176;7.534;2023-07-20T04:18:16;96006.06;;;17.47;72.03
79544;BME280;68994;47.176;7.534;2023-07-20T04:20:43;96008.47;;;17.48;71.39
79544;BME280;68994;47.176;7.534;2023-07-20T04:23:10;96007.34;;;17.49;69.40
79544;BME280;68994;47.176;7.534;2023-07-20T04:25:39;95990.47;;;17.43;69.12
79544;BME280;68994;47.176;7.534;2023-07-20T04:28:06;96003.44;;;17.55;70.31
79544;BME280;68994;47.176;7.534;2023-07-20T04:30:35;95983.78;;;17.55;69.62
79544;BME280;68994;47.176;7.534;2023-07-20T04:33:02;95997.16;;;17.60;73.03
79544;BME280;68994;47.176;7.534;2023-07-20T04:35:45;96000.16;;;17.58;72.04
79544;BME280;68994;47.176;7.534;2023-07-20T04:38:14;95997.47;;;17.58;69.47
79544;BME280;68994;47.176;7.534;2023-07-20T04:40:43;96002.25;;;17.61;69.55
79544;BME280;68994;47.176;7.534;2023-07-20T04:43:09;95994.16;;;17.61;69.17
79544;BME280;68994;47.176;7.534;2023-07-20T04:45:36;95997.22;;;17.69;69.44
79544;BME280;68994;47.176;7.534;2023-07-20T04:48:03;95996.63;;;17.72;69.08
79544;BME280;68994;47.176;7.534;2023-07-20T04:50:30;95993.81;;;17.77;68.81
79544;BME280;68994;47.176;7.534;2023-07-20T04:52:56;95987.53;;;17.82;69.66
79544;BME280;68994;47.176;7.534;2023-07-20T04:55:24;95989.28;;;17.86;71.96
79544;BME280;68994;47.176;7.534;2023-07-20T04:57:51;95986.00;;;17.89;71.03
79544;BME280;68994;47.176;7.534;2023-07-20T05:00:18;95988.59;;;17.94;71.02
79544;BME280;68994;47.176;7.534;2023-07-20T05:02:45;95986.91;;;17.98;69.73
79544;BME280;68994;47.176;7.534;2023-07-20T05:05:12;95986.66;;;18.09;68.36
79544;BME280;68994;47.176;7.534;2023-07-20T05:07:39;95982.94;;;18.19;68.60
79544;BME280;68994;47.176;7.534;2023-07-20T05:10:07;95988.06;;;18.29;66.63
79544;BME280;68994;47.176;7.534;2023-07-20T05:12:35;95993.09;;;18.44;65.35
79544;BME280;68994;47.176;7.534;2023-07-20T05:15:02;95984.38;;;18.47;64.80
79544;BME280;68994;47.176;7.534;2023-07-20T05:17:29;95982.44;;;18.39;66.02
79544;BME280;68994;47.176;7.534;2023-07-20T05:19:55;95993.59;;;18.46;65.33
79544;BME280;68994;47.176;7.534;2023-07-20T05:22:22;95990.31;;;18.58;63.86
79544;BME280;68994;47.176;7.534;2023-07-20T05:24:49;95987.75;;;18.53;65.22
79544;BME280;68994;47.176;7.534;2023-07-20T05:27:16;95985.88;;;18.53;65.75
79544;BME280;68994;47.176;7.534;2023-07-20T05:29:45;95976.03;;;18.58;66.04
79544;BME280;68994;47.176;7.534;2023-07-20T05:32:12;95980.31;;;18.59;64.67
79544;BME280;68994;47.176;7.534;2023-07-20T05:34:38;95978.41;;;18.59;64.28
79544;BME280;68994;47.176;7.534;2023-07-20T05:37:11;95982.28;;;18.67;63.40
79544;BME280;68994;47.176;7.534;2023-07-20T05:39:37;95981.19;;;18.77;63.09
79544;BME280;68994;47.176;7.534;2023-07-20T05:42:05;95984.78;;;18.86;63.78
79544;BME280;68994;47.176;7.534;2023-07-20T05:44:31;95981.19;;;18.99;65.30
79544;BME280;68994;47.176;7.534;2023-07-20T05:46:59;95983.13;;;19.07;64.23
79544;BME280;68994;47.176;7.534;2023-07-20T05:49:27;95982.50;;;19.11;65.98
79544;BME280;68994;47.176;7.534;2023-07-20T05:51:54;95978.19;;;19.09;66.15
79544;BME280;68994;47.176;7.534;2023-07-20T05:54:21;95979.16;;;19.14;62.68
79544;BME280;68994;47.176;7.534;2023-07-20T05:56:47;95981.59;;;19.24;63.11
79544;BME280;68994;47.176;7.534;2023-07-20T05:59:14;95981.78;;;19.27;62.81
79544;BME280;68994;47.176;7.534;2023-07-20T06:01:41;95975.91;;;19.34;60.70
79544;BME280;68994;47.176;7.534;2023-07-20T06:04:09;95976.72;;;19.43;62.16
79544;BME280;68994;47.176;7.534;2023-07-20T06:06:36;95973.06;;;19.39;64.22
79544;BME280;68994;47.176;7.534;2023-07-20T06:09:02;95981.16;;;19.39;64.43
79544;BME280;68994;47.176;7.534;2023-07-20T06:11:29;95976.53;;;19.40;64.83
79544;BME280;68994;47.176;7.534;2023-07-20T06:13:56;95972.06;;;19.26;64.71
79544;BME280;68994;47.176;7.534;2023-07-20T06:16:23;95976.97;;;19.16;64.70
79544;BME280;68994;47.176;7.534;2023-07-20T06:18:50;95984.56;;;19.14;65.38
79544;BME280;68994;47.176;7.534;2023-07-20T06:21:17;95966.44;;;19.05;66.80
79544;BME280;68994;47.176;7.534;2023-07-20T06:23:45;95978.41;;;19.22;66.81
79544;BME280;68994;47.176;7.534;2023-07-20T06:26:11;95978.44;;;19.31;65.96
79544;BME280;68994;47.176;7.534;2023-07-20T06:28:38;95978.94;;;19.41;65.66
79544;BME280;68994;47.176;7.534;2023-07-20T06:31:07;95987.75;;;19.56;66.62
79544;BME280;68994;47.176;7.534;2023-07-20T06:33:33;95976.94;;;19.73;65.39
79544;BME280;68994;47.176;7.534;2023-07-20T06:36:00;95982.69;;;19.80;64.14
79544;BME280;68994;47.176;7.534;2023-07-20T06:38:28;95982.88;;;19.93;62.99
79544;BME280;68994;47.176;7.534;2023-07-20T06:40:55;95985.25;;;20.03;61.75
79544;BME280;68994;47.176;7.534;2023-07-20T06:43:22;95987.97;;;20.12;63.18
79544;BME280;68994;47.176;7.534;2023-07-20T06:45:51;95986.69;;;20.09;60.83
79544;BME280;68994;47.176;7.534;2023-07-20T06:48:18;95989.53;;;20.04;60.66
79544;BME280;68994;47.176;7.534;2023-07-20T06:50:44;95977.94;;;19.95;60.64
79544;BME280;68994;47.176;7.534;2023-07-20T06:53:11;95980.31;;;19.88;60.66
79544;BME280;68994;47.176;7.534;2023-07-20T06:55:42;95980.47;;;19.82;62.70
79544;BME280;68994;47.176;7.534;2023-07-20T06:58:09;95977.94;;;19.86;61.77
79544;BME280;68994;47.176;7.534;2023-07-20T07:00:35;95980.47;;;19.91;63.12
79544;BME280;68994;47.176;7.534;2023-07-20T07:03:02;95974.59;;;19.98;61.98
79544;BME280;68994;47.176;7.534;2023-07-20T07:05:29;95979.84;;;20.03;59.10
79544;BME280;68994;47.176;7.534;2023-07-20T07:07:56;95975.06;;;20.09;59.98
79544;BME280;68994;47.176;7.534;2023-07-20T07:10:22;95971.25;;;20.10;58.53
79544;BME280;68994;47.176;7.534;2023-07-20T07:12:50;95978.56;;;20.09;59.24
79544;BME280;68994;47.176;7.534;2023-07-20T07:15:17;95973.78;;;20.15;60.45
79544;BME280;68994;47.176;7.534;2023-07-20T07:17:43;95972.16;;;20.23;60.97
79544;BME280;68994;47.176;7.534;2023-07-20T07:20:10;95969.31;;;20.28;59.65
79544;BME280;68994;47.176;7.534;2023-07-20T07:22:37;95977.09;;;20.29;59.34
79544;BME280;68994;47.176;7.534;2023-07-20T07:25:05;95976.63;;;20.27;58.39
79544;BME280;68994;47.176;7.534;2023-07-20T07:27:32;95964.22;;;20.26;58.75
79544;BME280;68994;47.176;7.534;2023-07-20T07:30:01;95974.06;;;20.31;55.94
79544;BME280;68994;47.176;7.534;2023-07-20T07:32:27;95970.09;;;20.37;56.11
79544;BME280;68994;47.176;7.534;2023-07-20T07:34:54;95971.53;;;20.43;56.24
79544;BME280;68994;47.176;7.534;2023-07-20T07:37:20;95969.75;;;20.47;57.05
79544;BME280;68994;47.176;7.534;2023-07-20T07:39:47;95974.53;;;20.50;56.36
79544;BME280;68994;47.176;7.534;2023-07-20T07:42:13;95973.25;;;20.56;57.12
79544;BME280;68994;47.176;7.534;2023-07-20T07:44:40;95966.06;;;20.61;56.28
79544;BME280;68994;47.176;7.534;2023-07-20T07:47:08;95961.28;;;20.57;56.33
79544;BME280;68994;47.176;7.534;2023-07-20T07:49:35;95955.38;;;20.55;56.26
79544;BME280;68994;47.176;7.534;2023-07-20T07:52:01;95949.31;;;20.58;56.05
79544;BME280;68994;47.176;7.534;2023-07-20T07:54:28;95947.59;;;20.63;58.28
79544;BME280;68994;47.176;7.534;2023-07-20T07:56:55;95949.94;;;20.73;57.74
79544;BME280;68994;47.176;7.534;2023-07-20T07:59:21;95955.69;;;20.80;59.31
79544;BME280;68994;47.176;7.534;2023-07-20T08:01:48;95956.75;;;20.88;57.96
79544;BME280;68994;47.176;7.534;2023-07-20T08:04:16;95936.88;;;20.75;53.40
79544;BME280;68994;47.176;7.534;2023-07-20T08:06:44;95957.22;;;20.99;54.26
79544;BME280;68994;47.176;7.534;2023-07-20T08:09:10;95955.75;;;21.01;55.69
79544;BME280;68994;47.176;7.534;2023-07-20T08:11:41;95949.81;;;21.08;57.99
79544;BME280;68994;47.176;7.534;2023-07-20T08:14:07;95948.06;;;21.12;55.67
79544;BME280;68994;47.176;7.534;2023-07-20T08:16:34;95941.13;;;21.23;56.88
79544;BME280;68994;47.176;7.534;2023-07-20T08:19:00;95949.38;;;21.36;56.05
79544;BME280;68994;47.176;7.534;2023-07-20T08:21:29;95946.22;;;21.55;56.83
79544;BME280;68994;47.176;7.534;2023-07-20T08:23:55;95947.63;;;21.82;52.85
79544;BME280;68994;47.176;7.534;2023-07-20T08:26:23;95947.47;;;21.87;49.39
79544;BME280;68994;47.176;7.534;2023-07-20T08:28:49;95942.81;;;21.88;49.91
79544;BME280;68994;47.176;7.534;2023-07-20T08:31:16;95943.19;;;21.98;51.08
79544;BME280;68994;47.176;7.534;2023-07-20T08:33:43;95946.47;;;22.25;49.50
79544;BME280;68994;47.176;7.534;2023-07-20T08:36:10;95947.94;;;22.44;47.66
79544;BME280;68994;47.176;7.534;2023-07-20T08:38:38;95941.81;;;22.47;49.38
79544;BME280;68994;47.176;7.534;2023-07-20T08:41:06;95938.22;;;22.55;49.50
79544;BME280;68994;47.176;7.534;2023-07-20T08:43:33;95936.47;;;22.71;51.45
79544;BME280;68994;47.176;7.534;2023-07-20T08:46:00;95937.13;;;22.81;51.72
79544;BME280;68994;47.176;7.534;2023-07-20T08:48:27;95936.03;;;22.94;51.03
79544;BME280;68994;47.176;7.534;2023-07-20T08:50:55;95928.56;;;23.15;52.76
79544;BME280;68994;47.176;7.534;2023-07-20T08:53:22;95925.16;;;23.31;51.08
79544;BME280;68994;47.176;7.534;2023-07-20T08:55:51;95924.00;;;23.44;45.27
79544;BME280;68994;47.176;7.534;2023-07-20T08:58:18;95923.16;;;23.28;50.84
79544;BME280;68994;47.176;7.534;2023-07-20T09:00:45;95924.84;;;23.20;48.05
79544;BME280;68994;47.176;7.534;2023-07-20T09:03:15;95927.22;;;23.34;44.73
79544;BME280;68994;47.176;7.534;2023-07-20T09:05:42;95913.84;;;23.17;48.63
79544;BME280;68994;47.176;7.534;2023-07-20T09:08:08;95915.78;;;23.16;46.77
79544;BME280;68994;47.176;7.534;2023-07-20T09:10:35;95916.56;;;23.17;46.15
79544;BME280;68994;47.176;7.534;2023-07-20T09:13:03;95912.50;;;23.23;48.84
79544;BME280;68994;47.176;7.534;2023-07-20T09:15:30;95915.41;;;23.42;47.62
79544;BME280;68994;47.176;7.534;2023-07-20T09:18:01;95909.97;;;23.30;44.39
79544;BME280;68994;47.176;7.534;2023-07-20T09:20:31;95891.41;;;23.20;47.53
79544;BME280;68994;47.176;7.534;2023-07-20T09:22:58;95906.34;;;23.38;49.40
79544;BME280;68994;47.176;7.534;2023-07-20T09:25:26;95898.25;;;23.54;50.37
79544;BME280;68994;47.176;7.534;2023-07-20T09:27:53;95908.53;;;23.73;48.45
79544;BME280;68994;47.176;7.534;2023-07-20T09:30:25;95901.66;;;24.04;48.86
79544;BME280;68994;47.176;7.534;2023-07-20T09:32:51;95894.88;;;24.42;49.68
79544;BME280;68994;47.176;7.534;2023-07-20T09:35:20;95904.38;;;24.92;47.02
79544;BME280;68994;47.176;7.534;2023-07-20T09:37:48;95893.16;;;25.29;43.69
79544;BME280;68994;47.176;7.534;2023-07-20T09:40:17;95894.84;;;26.28;45.91
79544;BME280;68994;47.176;7.534;2023-07-20T09:42:44;95892.78;;;27.64;41.77
79544;BME280;68994;47.176;7.534;2023-07-20T09:45:11;95887.38;;;29.21;38.14
79544;BME280;68994;47.176;7.534;2023-07-20T09:47:41;95899.16;;;30.97;33.71
79544;BME280;68994;47.176;7.534;2023-07-20T09:50:08;95882.13;;;31.63;29.74
79544;BME280;68994;47.176;7.534;2023-07-20T09:52:39;95885.91;;;33.36;29.48
79544;BME280;68994;47.176;7.534;2023-07-20T09:55:09;95878.44;;;34.05;26.39
79544;BME280;68994;47.176;7.534;2023-07-20T09:57:37;95873.13;;;34.52;28.51
79544;BME280;68994;47.176;7.534;2023-07-20T10:00:04;95870.41;;;34.76;22.73
79544;BME280;68994;47.176;7.534;2023-07-20T10:02:44;95876.72;;;35.27;26.61
79544;BME280;68994;47.176;7.534;2023-07-20T10:05:12;95841.50;;;35.88;26.96
79544;BME280;68994;47.176;7.534;2023-07-20T10:07:44;95862.22;;;35.83;27.11
79544;BME280;68994;47.176;7.534;2023-07-20T10:10:12;95854.72;;;36.40;25.47
79544;BME280;68994;47.176;7.534;2023-07-20T10:12:41;95838.78;;;36.78;24.44
79544;BME280;68994;47.176;7.534;2023-07-20T10:15:11;95836.28;;;36.47;21.33
79544;BME280;68994;47.176;7.534;2023-07-20T10:17:48;95829.25;;;36.26;22.57
79544;BME280;68994;47.176;7.534;2023-07-20T10:20:19;95829.28;;;36.42;21.35
79544;BME280;68994;47.176;7.534;2023-07-20T10:22:48;95817.75;;;35.87;22.10
79544;BME280;68994;47.176;7.534;2023-07-20T10:25:16;95823.53;;;36.13;23.75
79544;BME280;68994;47.176;7.534;2023-07-20T10:27:45;95825.72;;;35.85;24.52
79544;BME280;68994;47.176;7.534;2023-07-20T10:30:12;95816.59;;;34.19;22.88
79544;BME280;68994;47.176;7.534;2023-07-20T10:32:44;95806.53;;;31.57;26.32
79544;BME280;68994;47.176;7.534;2023-07-20T10:35:12;95820.03;;;30.98;28.04
79544;BME280;68994;47.176;7.534;2023-07-20T10:37:50;95810.25;;;32.07;28.26
79544;BME280;68994;47.176;7.534;2023-07-20T10:40:30;95810.06;;;33.37;25.07
79544;BME280;68994;47.176;7.534;2023-07-20T10:43:02;95811.19;;;34.08;25.06
79544;BME280;68994;47.176;7.534;2023-07-20T10:45:42;95813.66;;;35.08;25.04
79544;BME280;68994;47.176;7.534;2023-07-20T10:48:17;95813.75;;;35.48;25.01
79544;BME280;68994;47.176;7.534;2023-07-20T10:50:45;95808.66;;;36.03;28.79
79544;BME280;68994;47.176;7.534;2023-07-20T10:53:16;95802.34;;;35.62;23.98
79544;BME280;68994;47.176;7.534;2023-07-20T10:55:43;95804.91;;;35.53;23.57
79544;BME280;68994;47.176;7.534;2023-07-20T10:58:12;95798.28;;;35.67;24.72
79544;BME280;68994;47.176;7.534;2023-07-20T11:00:56;95801.94;;;35.20;23.56
79544;BME280;68994;47.176;7.534;2023-07-20T11:03:30;95797.72;;;35.36;27.45
79544;BME280;68994;47.176;7.534;2023-07-20T11:05:57;95785.13;;;35.07;22.99
79544;BME280;68994;47.176;7.534;2023-07-20T11:08:41;95784.94;;;35.18;26.49
79544;BME280;68994;47.176;7.534;2023-07-20T11:11:24;95781.56;;;35.30;26.13
79544;BME280;68994;47.176;7.534;2023-07-20T11:13:58;95773.06;;;34.19;23.86
79544;BME280;68994;47.176;7.534;2023-07-20T11:16:41;95787.19;;;34.29;25.64
79544;BME280;68994;47.176;7.534;2023-07-20T11:19:17;95783.72;;;34.48;26.53
79544;BME280;68994;47.176;7.534;2023-07-20T11:21:45;95774.22;;;34.49;26.56
79544;BME280;68994;47.176;7.534;2023-07-20T11:24:12;95774.25;;;34.18;26.42
79544;BME280;68994;47.176;7.534;2023-07-20T11:26:43;95776.38;;;34.38;27.03
79544;BME280;68994;47.176;7.534;2023-07-20T11:29:10;95773.06;;;33.89;25.35
79544;BME280;68994;47.176;7.534;2023-07-20T11:31:37;95772.88;;;33.76;26.47
79544;BME280;68994;47.176;7.534;2023-07-20T11:34:04;95769.06;;;33.62;31.58
79544;BME280;68994;47.176;7.534;2023-07-20T11:36:33;95772.94;;;33.34;24.06
79544;BME280;68994;47.176;7.534;2023-07-20T11:39:00;95763.81;;;32.50;25.30
79544;BME280;68994;47.176;7.534;2023-07-20T11:41:26;95773.03;;;31.55;31.17
79544;BME280;68994;47.176;7.534;2023-07-20T11:43:54;95767.16;;;31.35;33.03
79544;BME280;68994;47.176;7.534;2023-07-20T11:46:21;95765.50;;;31.67;30.99
79544;BME280;68994;47.176;7.534;2023-07-20T11:48:47;95758.69;;;31.89;29.22
79544;BME280;68994;47.176;7.534;2023-07-20T11:51:14;95754.97;;;32.21;29.25
79544;BME280;68994;47.176;7.534;2023-07-20T11:53:43;95754.09;;;32.35;30.37
79544;BME280;68994;47.176;7.534;2023-07-20T11:56:10;95745.06;;;32.27;29.50
79544;BME280;68994;47.176;7.534;2023-07-20T11:58:42;95741.22;;;32.14;29.89
79544;BME280;68994;47.176;7.534;2023-07-20T12:01:09;95741.25;;;32.03;27.59
79544;BME280;68994;47.176;7.534;2023-07-20T12:03:36;95737.28;;;32.04;28.21
79544;BME280;68994;47.176;7.534;2023-07-20T12:06:06;95727.84;;;32.09;32.24
79544;BME280;68994;47.176;7.534;2023-07-20T12:08:33;95721.16;;;31.99;32.80
79544;BME280;68994;47.176;7.534;2023-07-20T12:11:02;95729.94;;;31.83;30.02
79544;BME280;68994;47.176;7.534;2023-07-20T12:13:38;95725.63;;;31.78;33.01
79544;BME280;68994;47.176;7.534;2023-07-20T12:16:12;95728.16;;;31.44;28.25
79544;BME280;68994;47.176;7.534;2023-07-20T12:18:40;95716.50;;;31.04;30.62
79544;BME280;68994;47.176;7.534;2023-07-20T12:21:07;95723.63;;;30.37;29.71
79544;BME280;68994;47.176;7.534;2023-07-20T12:23:38;95720.06;;;30.18;30.35
79544;BME280;68994;47.176;7.534;2023-07-20T12:26:10;95704.72;;;30.06;27.92
79544;BME280;68994;47.176;7.534;2023-07-20T12:28:40;95714.94;;;30.13;31.44
79544;BME280;68994;47.176;7.534;2023-07-20T12:31:07;95704.72;;;30.10;29.07
79544;BME280;68994;47.176;7.534;2023-07-20T12:33:35;95711.03;;;30.18;29.50
79544;BME280;68994;47.176;7.534;2023-07-20T12:36:02;95705.16;;;30.37;29.30
79544;BME280;68994;47.176;7.534;2023-07-20T12:38:28;95693.72;;;30.10;26.40
79544;BME280;68994;47.176;7.534;2023-07-20T12:40:56;95692.44;;;29.53;29.65
79544;BME280;68994;47.176;7.534;2023-07-20T12:43:24;95695.56;;;29.45;31.63
79544;BME280;68994;47.176;7.534;2023-07-20T12:45:51;95691.59;;;29.42;28.58
79544;BME280;68994;47.176;7.534;2023-07-20T12:48:18;95693.97;;;29.51;34.60
79544;BME280;68994;47.176;7.534;2023-07-20T12:50:44;95677.53;;;29.72;32.85
79544;BME280;68994;47.176;7.534;2023-07-20T12:53:11;95679.16;;;29.88;32.50
79544;BME280;68994;47.176;7.534;2023-07-20T12:55:38;95680.34;;;30.01;34.01
79544;BME280;68994;47.176;7.534;2023-07-20T12:58:05;95681.94;;;29.95;31.67
79544;BME280;68994;47.176;7.534;2023-07-20T13:00:33;95678.78;;;30.07;32.90
79544;BME280;68994;47.176;7.534;2023-07-20T13:03:00;95673.66;;;30.16;33.08
79544;BME280;68994;47.176;7.534;2023-07-20T13:05:30;95678.78;;;30.18;32.46